Time;durP1;ratioP1;P1;durP2;ratioP2;P2;SDS_P1;SDS_P2;PMS_P1;PMS_P2;Temp;Humidity;BMP_temperature;BMP_pressure;BME280_temperature;BME280_humidity;BME280_pressure;Samples;Min_cycle;Max_cycle;Signal;HPM_P1;HPM_P2
2023/01/02 00:02:18;;;;;;;16.83;14.13;;;10.60;99.90;;;;;;4972536;28;91059;-32
2023/01/02 00:04:44;;;;;;;25.77;16.38;;;10.60;99.90;;;;;;4970952;28;89921;-32
2023/01/02 00:07:09;;;;;;;15.77;13.90;;;10.60;99.90;;;;;;4973889;28;88134;-32
2023/01/02 00:09:35;;;;;;;20.73;14.60;;;10.50;99.90;;;;;;4972149;28;90222;-34
2023/01/02 00:12:00;;;;;;;21.55;15.00;;;10.50;99.90;;;;;;4971819;28;89595;-33
2023/01/02 00:14:26;;;;;;;21.30;15.95;;;10.50;99.90;;;;;;4970235;28;89720;-32
2023/01/02 00:16:52;;;;;;;14.70;13.23;;;10.50;99.90;;;;;;4964902;28;88212;-33
2023/01/02 00:19:17;;;;;;;22.48;15.35;;;10.50;99.90;;;;;;4964709;28;90251;-32
2023/01/02 00:21:43;;;;;;;25.45;14.48;;;10.50;99.90;;;;;;4973266;28;89794;-33
2023/01/02 00:24:09;;;;;;;18.45;14.18;;;10.50;99.90;;;;;;4974663;28;89729;-31
2023/01/02 00:26:34;;;;;;;19.13;13.52;;;10.60;99.90;;;;;;4973882;28;89364;-31
2023/01/02 00:29:01;;;;;;;20.60;14.50;;;10.60;99.90;;;;;;4970347;28;90242;-33
2023/01/02 00:31:26;;;;;;;18.30;14.48;;;10.60;99.90;;;;;;4960707;28;89687;-33
2023/01/02 00:33:52;;;;;;;21.77;14.88;;;10.60;99.90;;;;;;4960450;28;90163;-32
2023/01/02 00:36:17;;;;;;;25.00;16.13;;;10.60;99.90;;;;;;4961949;28;89192;-33
2023/01/02 00:38:43;;;;;;;17.05;14.73;;;10.70;99.90;;;;;;4961991;28;90594;-34
2023/01/02 00:41:09;;;;;;;19.15;14.07;;;10.70;99.90;;;;;;4960356;28;88659;-35
2023/01/02 00:43:35;;;;;;;24.25;17.50;;;10.70;99.90;;;;;;4963345;28;88951;-34
2023/01/02 00:46:01;;;;;;;24.92;16.75;;;10.70;99.90;;;;;;4964274;28;88695;-32
2023/01/02 00:48:26;;;;;;;20.77;16.50;;;10.70;99.90;;;;;;4966980;28;89053;-32
2023/01/02 00:50:52;;;;;;;21.77;16.25;;;10.70;99.90;;;;;;4973331;28;90700;-33
2023/01/02 00:53:18;;;;;;;22.27;17.55;;;10.80;99.90;;;;;;4974101;28;90374;-31
2023/01/02 00:55:44;;;;;;;23.92;15.73;;;10.80;99.90;;;;;;4984423;28;88464;-34
2023/01/02 00:58:10;;;;;;;22.45;15.85;;;10.80;99.90;;;;;;4973275;28;90047;-33
2023/01/02 01:00:36;;;;;;;19.88;16.63;;;10.80;99.90;;;;;;4960824;28;89649;-36
2023/01/02 01:03:01;;;;;;;19.67;15.73;;;10.80;99.90;;;;;;4963114;28;88526;-33
2023/01/02 01:05:28;;;;;;;22.00;13.63;;;10.90;99.90;;;;;;4963048;28;89953;-32
2023/01/02 01:07:54;;;;;;;23.15;18.05;;;10.90;99.90;;;;;;4965421;28;90180;-32
2023/01/02 01:10:21;;;;;;;23.20;18.20;;;10.90;99.90;;;;;;4966733;28;88640;-33
2023/01/02 01:12:47;;;;;;;19.70;15.45;;;10.90;99.90;;;;;;4966240;28;88519;-32
2023/01/02 01:15:12;;;;;;;17.38;15.35;;;10.90;99.90;;;;;;4971024;28;89016;-32
2023/01/02 01:17:38;;;;;;;35.03;18.73;;;10.90;99.90;;;;;;4967795;28;88952;-35
2023/01/02 01:20:04;;;;;;;19.30;14.50;;;10.90;99.90;;;;;;4965796;28;89700;-32
2023/01/02 01:22:30;;;;;;;28.95;18.90;;;10.90;99.90;;;;;;4962222;28;89715;-33
2023/01/02 01:24:55;;;;;;;28.50;18.40;;;10.90;99.90;;;;;;4960893;28;88641;-33
2023/01/02 01:27:21;;;;;;;21.00;15.77;;;10.90;99.90;;;;;;4960220;28;91252;-32
2023/01/02 01:29:47;;;;;;;19.65;15.93;;;10.90;99.90;;;;;;4960911;28;89204;-32
2023/01/02 01:32:12;;;;;;;20.52;17.33;;;11.00;99.90;;;;;;4961051;28;90478;-32
2023/01/02 01:34:38;;;;;;;20.20;14.30;;;11.00;99.90;;;;;;4962032;28;88838;-33
2023/01/02 01:37:03;;;;;;;17.25;15.43;;;11.10;99.90;;;;;;4959598;28;90393;-34
2023/01/02 01:39:29;;;;;;;21.73;16.05;;;11.10;99.90;;;;;;4969822;28;91521;-32
2023/01/02 01:41:57;;;;;;;19.20;14.32;;;11.10;99.90;;;;;;4964091;28;90486;-32
2023/01/02 01:44:48;;;;;;;18.15;12.82;;;11.10;99.90;;;;;;4960594;28;87675;-33
2023/01/02 01:47:32;;;;;;;24.75;17.70;;;11.10;99.90;;;;;;4960456;28;90237;-34
2023/01/02 01:50:19;;;;;;;23.00;14.23;;;11.10;99.90;;;;;;4961941;28;90723;-33
2023/01/02 01:53:00;;;;;;;21.52;12.77;;;11.20;99.90;;;;;;4959280;28;89421;-35
2023/01/02 01:55:34;;;;;;;17.70;14.27;;;11.10;99.90;;;;;;4960094;28;88753;-33
2023/01/02 01:58:10;;;;;;;16.95;15.15;;;11.20;99.90;;;;;;4959102;28;90248;-35
2023/01/02 02:00:38;;;;;;;18.73;13.35;;;11.20;99.90;;;;;;4959573;28;89890;-36
2023/01/02 02:03:09;;;;;;;17.42;12.90;;;11.20;99.90;;;;;;4962466;28;90761;-33
2023/01/02 02:05:35;;;;;;;19.38;14.82;;;11.20;99.90;;;;;;4964049;28;89907;-35
2023/01/02 02:08:17;;;;;;;19.30;13.05;;;11.10;99.90;;;;;;4966363;28;90456;-33
2023/01/02 02:10:43;;;;;;;17.27;13.07;;;11.20;99.90;;;;;;4965002;28;89262;-32
2023/01/02 02:13:09;;;;;;;22.35;13.50;;;11.20;99.90;;;;;;4969069;28;89716;-32
2023/01/02 02:15:59;;;;;;;23.52;14.93;;;11.20;99.90;;;;;;4960909;28;89612;-33
2023/01/02 02:18:35;;;;;;;19.50;12.98;;;11.20;99.90;;;;;;4959515;28;89777;-34
2023/01/02 02:21:18;;;;;;;25.20;13.70;;;11.20;99.90;;;;;;4961353;28;89483;-32
2023/01/02 02:23:56;;;;;;;17.50;11.65;;;11.20;99.90;;;;;;4961135;28;89575;-34
2023/01/02 02:26:53;;;;;;;15.43;12.90;;;11.10;99.90;;;;;;4959715;28;89531;-34
2023/01/02 02:29:43;;;;;;;21.87;14.27;;;11.20;99.90;;;;;;4960348;28;89893;-33
2023/01/02 02:32:20;;;;;;;15.85;12.20;;;11.20;99.90;;;;;;4964502;28;90820;-33
2023/01/02 02:34:57;;;;;;;17.98;12.00;;;11.20;99.90;;;;;;4960928;28;89352;-32
2023/01/02 02:37:47;;;;;;;24.85;11.77;;;11.20;99.90;;;;;;4963868;28;89075;-34
2023/01/02 02:40:40;;;;;;;18.20;12.00;;;11.20;99.90;;;;;;4960241;28;90113;-33
2023/01/02 02:43:35;;;;;;;21.75;13.10;;;11.30;99.90;;;;;;4959779;28;88799;-33
2023/01/02 02:46:06;;;;;;;16.33;10.48;;;11.40;99.90;;;;;;4964237;28;90262;-33
2023/01/02 02:48:46;;;;;;;22.00;10.68;;;11.30;99.90;;;;;;4961169;28;89077;-33
2023/01/02 02:51:28;;;;;;;21.55;11.20;;;11.40;99.90;;;;;;4960746;28;91054;-33
2023/01/02 02:54:00;;;;;;;16.88;10.65;;;11.40;99.90;;;;;;4962462;28;89074;-32
2023/01/02 02:56:27;;;;;;;19.88;11.23;;;11.40;99.90;;;;;;4965450;28;89992;-32
2023/01/02 02:58:54;;;;;;;17.50;10.50;;;11.40;99.90;;;;;;4974091;28;89404;-34
2023/01/02 03:01:25;;;;;;;10.80;8.63;;;11.40;99.90;;;;;;4959444;28;90025;-35
2023/01/02 03:03:51;;;;;;;11.32;8.65;;;11.40;99.90;;;;;;4962487;28;89817;-32
2023/01/02 03:06:16;;;;;;;14.07;9.65;;;11.50;99.90;;;;;;4960697;28;89872;-33
2023/01/02 03:08:54;;;;;;;11.95;8.63;;;11.60;99.90;;;;;;4963721;28;87670;-33
2023/01/02 03:11:25;;;;;;;13.98;10.98;;;11.50;99.90;;;;;;4963742;28;89064;-33
2023/01/02 03:14:08;;;;;;;12.60;9.43;;;11.50;99.90;;;;;;4960639;28;89865;-32
2023/01/02 03:16:42;;;;;;;13.93;8.65;;;11.60;99.90;;;;;;4969826;28;89431;-32
2023/01/02 03:19:14;;;;;;;14.27;10.18;;;11.60;99.90;;;;;;4966587;28;88124;-33
2023/01/02 03:21:52;;;;;;;20.17;11.63;;;11.60;99.90;;;;;;4958928;28;89846;-34
2023/01/02 03:24:20;;;;;;;14.82;9.63;;;11.60;99.90;;;;;;4958233;28;90705;-33
2023/01/02 03:26:50;;;;;;;18.20;9.00;;;11.50;99.90;;;;;;4958763;28;90285;-32
2023/01/02 03:29:22;;;;;;;13.52;9.23;;;11.50;99.90;;;;;;4959254;28;87576;-33
2023/01/02 03:31:52;;;;;;;12.50;9.55;;;11.50;99.90;;;;;;4960478;28;90069;-34
2023/01/02 03:34:22;;;;;;;14.00;8.70;;;11.50;99.90;;;;;;4960723;28;90216;-32
2023/01/02 03:36:56;;;;;;;16.23;10.40;;;11.50;99.90;;;;;;4962194;28;89633;-33
2023/01/02 03:39:27;;;;;;;14.80;9.20;;;11.40;99.90;;;;;;4958785;28;88843;-34
2023/01/02 03:42:07;;;;;;;16.45;10.40;;;11.50;99.90;;;;;;4968039;28;90155;-32
2023/01/02 03:44:39;;;;;;;12.57;9.88;;;11.40;99.90;;;;;;4963630;28;89368;-32
2023/01/02 03:47:20;;;;;;;14.93;9.70;;;11.40;99.90;;;;;;4968198;28;89431;-32
2023/01/02 03:49:50;;;;;;;13.10;9.88;;;11.40;99.90;;;;;;4962333;28;90035;-32
2023/01/02 03:52:16;;;;;;;10.43;9.10;;;11.40;99.90;;;;;;4961070;28;90060;-33
2023/01/02 03:54:42;;;;;;;14.65;10.32;;;11.40;99.90;;;;;;4966155;28;88982;-32
2023/01/02 03:57:11;;;;;;;12.25;8.95;;;11.50;99.90;;;;;;4961127;28;90230;-34
2023/01/02 03:59:48;;;;;;;15.38;9.95;;;11.50;99.90;;;;;;4960600;28;90043;-34
2023/01/02 04:02:36;;;;;;;16.70;10.43;;;11.50;99.90;;;;;;4968438;28;90381;-32
2023/01/02 04:05:19;;;;;;;11.10;7.90;;;11.40;99.90;;;;;;4974989;28;90139;-33
2023/01/02 04:07:54;;;;;;;20.15;10.20;;;11.40;99.90;;;;;;4975630;28;90020;-33
2023/01/02 04:10:21;;;;;;;13.98;8.63;;;11.60;99.90;;;;;;4963762;28;89813;-34
2023/01/02 04:12:51;;;;;;;13.57;9.32;;;11.60;99.90;;;;;;4961582;28;90291;-35
2023/01/02 04:15:20;;;;;;;11.45;8.65;;;11.50;99.90;;;;;;4960692;28;90581;-34
2023/01/02 04:17:58;;;;;;;17.90;9.85;;;11.60;99.90;;;;;;4961148;28;90317;-34
2023/01/02 04:20:31;;;;;;;15.80;8.80;;;11.50;99.90;;;;;;4972101;28;87911;-32
2023/01/02 04:23:02;;;;;;;15.70;8.93;;;11.50;99.90;;;;;;4963801;28;89907;-33
2023/01/02 04:25:52;;;;;;;14.35;9.80;;;11.60;99.90;;;;;;4963048;28;89134;-34
2023/01/02 04:28:25;;;;;;;16.02;9.32;;;11.60;99.90;;;;;;4967529;28;89470;-32
2023/01/02 04:31:04;;;;;;;11.52;8.25;;;11.60;99.90;;;;;;4961914;28;88901;-34
2023/01/02 04:33:35;;;;;;;11.75;9.18;;;11.70;99.90;;;;;;4967355;28;89168;-35
2023/01/02 04:36:12;;;;;;;18.40;9.57;;;11.70;99.90;;;;;;4960601;28;90104;-33
2023/01/02 04:38:38;;;;;;;17.75;9.88;;;11.70;99.90;;;;;;4960961;28;89531;-33
2023/01/02 04:41:05;;;;;;;13.18;9.23;;;11.70;99.90;;;;;;4960483;28;89628;-34
2023/01/02 04:43:31;;;;;;;14.15;9.02;;;11.60;99.90;;;;;;4966770;28;90212;-32
2023/01/02 04:45:57;;;;;;;13.15;7.93;;;11.60;99.90;;;;;;4972084;28;89347;-33
2023/01/02 04:48:22;;;;;;;9.45;7.70;;;11.70;99.90;;;;;;4960687;28;89983;-32
2023/01/02 04:50:48;;;;;;;14.90;7.55;;;11.70;99.90;;;;;;4961134;28;88962;-35
2023/01/02 04:53:14;;;;;;;11.30;9.15;;;11.70;99.90;;;;;;4960767;28;90273;-33
2023/01/02 04:55:40;;;;;;;18.27;10.23;;;11.70;99.90;;;;;;4960408;28;89831;-34
2023/01/02 04:58:06;;;;;;;10.40;8.18;;;11.80;99.90;;;;;;4960690;28;89616;-32
2023/01/02 05:00:32;;;;;;;9.27;8.27;;;11.80;99.90;;;;;;4960612;28;89456;-32
2023/01/02 05:03:00;;;;;;;12.60;7.82;;;11.80;99.90;;;;;;4962070;28;90339;-32
2023/01/02 05:05:26;;;;;;;18.17;7.77;;;11.80;99.90;;;;;;4962842;28;90202;-35
2023/01/02 05:07:51;;;;;;;9.57;7.18;;;11.80;99.90;;;;;;4961407;28;90564;-32
2023/01/02 05:10:17;;;;;;;12.23;8.50;;;11.80;99.90;;;;;;4963943;28;89642;-35
2023/01/02 05:12:42;;;;;;;12.70;8.00;;;11.80;99.90;;;;;;4960331;28;90260;-34
2023/01/02 05:15:09;;;;;;;15.30;6.97;;;11.80;99.90;;;;;;4960346;28;88732;-35
2023/01/02 05:17:36;;;;;;;9.77;7.10;;;11.90;99.90;;;;;;4960014;28;89003;-34
2023/01/02 05:20:02;;;;;;;12.27;6.75;;;11.90;99.90;;;;;;4960741;28;88114;-33
2023/01/02 05:25:12;;;;;;;13.55;6.80;;;11.90;99.90;;;;;;4974848;28;89866;-32
2023/01/02 05:27:39;;;;;;;17.23;7.95;;;11.90;99.90;;;;;;4973329;28;88947;-32
2023/01/02 05:30:06;;;;;;;16.90;8.60;;;11.90;99.90;;;;;;4968638;28;88867;-33
2023/01/02 05:32:32;;;;;;;12.68;8.15;;;12.00;99.90;;;;;;4963533;28;91667;-35
2023/01/02 05:34:57;;;;;;;9.73;7.18;;;12.00;99.90;;;;;;4965310;28;89826;-32
2023/01/02 05:37:23;;;;;;;11.45;7.60;;;12.00;99.90;;;;;;4974209;28;89838;-33
2023/01/02 05:39:48;;;;;;;13.35;7.53;;;12.00;99.90;;;;;;4965495;28;88615;-35
2023/01/02 05:42:14;;;;;;;13.45;7.70;;;12.00;99.90;;;;;;4959831;28;90313;-34
2023/01/02 05:44:39;;;;;;;9.50;6.80;;;12.10;99.90;;;;;;4960676;28;89987;-34
2023/01/02 05:47:05;;;;;;;10.43;7.68;;;12.00;99.90;;;;;;4960013;28;89484;-33
2023/01/02 05:49:31;;;;;;;7.40;6.43;;;12.10;99.90;;;;;;4961800;28;89132;-32
2023/01/02 05:51:56;;;;;;;9.68;7.03;;;12.10;99.90;;;;;;4970591;28;91412;-33
2023/01/02 05:54:22;;;;;;;8.80;7.47;;;12.10;99.90;;;;;;4963484;28;90941;-33
2023/01/02 05:56:47;;;;;;;9.85;7.68;;;12.10;99.90;;;;;;4962644;28;89406;-34
2023/01/02 05:59:13;;;;;;;10.18;7.35;;;12.10;99.90;;;;;;4960479;28;89136;-34
2023/01/02 06:01:39;;;;;;;10.73;7.13;;;12.10;99.90;;;;;;4942400;28;90623;-33
2023/01/02 06:04:05;;;;;;;11.65;7.70;;;12.10;99.90;;;;;;4959287;28;89482;-32
2023/01/02 06:06:33;;;;;;;19.85;7.93;;;12.00;99.90;;;;;;4964695;28;89631;-35
2023/01/02 06:09:00;;;;;;;11.82;7.28;;;12.00;99.90;;;;;;4960449;28;88816;-32
2023/01/02 06:11:27;;;;;;;14.73;7.75;;;12.10;99.90;;;;;;4970438;28;89589;-35
2023/01/02 06:13:53;;;;;;;10.30;7.78;;;12.10;99.90;;;;;;4961719;28;90458;-32
2023/01/02 06:16:18;;;;;;;9.27;6.70;;;12.10;99.90;;;;;;4963274;28;89013;-32
2023/01/02 06:18:44;;;;;;;7.47;5.88;;;12.10;99.90;;;;;;4959356;28;89528;-33
2023/01/02 06:21:12;;;;;;;8.93;5.97;;;12.00;99.90;;;;;;4966418;28;89569;-34
2023/01/02 06:23:39;;;;;;;14.27;7.50;;;12.00;99.90;;;;;;4972450;28;88668;-33
2023/01/02 06:26:09;;;;;;;10.05;7.03;;;12.20;99.90;;;;;;4989159;28;88385;-32
2023/01/02 06:28:35;;;;;;;9.30;6.47;;;12.20;99.90;;;;;;4967867;28;88798;-34
2023/01/02 06:31:04;;;;;;;9.88;6.75;;;12.10;99.90;;;;;;4959107;28;90177;-32
2023/01/02 06:33:30;;;;;;;14.52;7.72;;;12.10;99.90;;;;;;4959826;28;89769;-34
2023/01/02 06:36:00;;;;;;;12.80;6.30;;;12.00;99.90;;;;;;4959554;28;89984;-35
2023/01/02 06:38:26;;;;;;;10.40;8.10;;;12.00;99.90;;;;;;4959372;28;87955;-33
2023/01/02 06:40:56;;;;;;;14.43;7.85;;;12.10;99.90;;;;;;4958861;28;89924;-33
2023/01/02 06:43:23;;;;;;;14.23;7.57;;;12.10;99.90;;;;;;4958328;28;90689;-32
2023/01/02 06:45:49;;;;;;;11.98;6.10;;;12.10;99.90;;;;;;4959260;28;89342;-33
2023/01/02 06:48:15;;;;;;;9.13;6.68;;;12.10;99.90;;;;;;4959871;28;88839;-33
2023/01/02 06:50:41;;;;;;;7.85;6.85;;;12.10;99.90;;;;;;4959438;28;89837;-33
2023/01/02 06:53:07;;;;;;;10.57;7.00;;;12.00;99.90;;;;;;4959398;28;90030;-32
2023/01/02 06:55:32;;;;;;;8.75;6.57;;;12.10;99.90;;;;;;4965448;28;89899;-35
2023/01/02 06:57:58;;;;;;;8.20;6.90;;;12.10;99.90;;;;;;4959698;28;88701;-33
2023/01/02 07:00:24;;;;;;;7.07;6.38;;;12.10;99.90;;;;;;4959080;28;90479;-34
2023/01/02 07:02:49;;;;;;;14.02;7.28;;;12.10;99.90;;;;;;4957010;28;89618;-33
2023/01/02 07:05:15;;;;;;;9.20;7.30;;;12.10;99.90;;;;;;4959885;28;89488;-33
2023/01/02 07:07:40;;;;;;;8.45;5.70;;;12.10;99.90;;;;;;4958176;28;89019;-32
2023/01/02 07:10:06;;;;;;;9.18;6.28;;;12.10;99.90;;;;;;4962962;28;89842;-34
2023/01/02 07:12:36;;;;;;;10.05;7.30;;;12.10;99.90;;;;;;4958446;28;91402;-33
2023/01/02 07:15:03;;;;;;;11.02;6.28;;;12.10;99.90;;;;;;4967447;28;89677;-32
2023/01/02 07:17:31;;;;;;;15.13;6.40;;;12.10;99.90;;;;;;4967084;28;89530;-32
2023/01/02 07:19:56;;;;;;;9.75;6.07;;;12.00;99.90;;;;;;4976339;28;90157;-33
2023/01/02 07:22:22;;;;;;;7.45;6.47;;;12.10;99.90;;;;;;4976422;28;89530;-32
2023/01/02 07:24:47;;;;;;;10.20;6.90;;;12.10;99.90;;;;;;4969943;28;89323;-35
2023/01/02 07:27:13;;;;;;;7.30;6.60;;;12.10;99.90;;;;;;4964211;28;90605;-33
2023/01/02 07:29:38;;;;;;;10.45;7.18;;;12.10;99.90;;;;;;4963556;28;90528;-32
2023/01/02 07:32:04;;;;;;;11.65;7.95;;;12.10;99.90;;;;;;4964076;28;91083;-33
2023/01/02 07:34:30;;;;;;;9.38;6.38;;;12.10;99.90;;;;;;4962858;28;89284;-32
2023/01/02 07:36:55;;;;;;;5.15;4.65;;;12.10;99.90;;;;;;4964330;28;88680;-33
2023/01/02 07:39:22;;;;;;;8.18;4.80;;;12.10;99.90;;;;;;4966680;28;90118;-33
2023/01/02 07:41:47;;;;;;;6.68;5.75;;;12.00;99.90;;;;;;4976328;28;88152;-34
2023/01/02 07:44:13;;;;;;;5.10;4.65;;;12.00;99.90;;;;;;4967718;28;88956;-33
2023/01/02 07:46:39;;;;;;;4.97;3.92;;;12.00;99.90;;;;;;4976168;28;88755;-32
2023/01/02 07:49:04;;;;;;;4.82;4.20;;;12.00;99.90;;;;;;4972416;28;90219;-33
2023/01/02 07:51:31;;;;;;;4.80;3.35;;;11.90;99.90;;;;;;4970677;28;89094;-32
2023/01/02 07:53:57;;;;;;;3.38;3.10;;;11.70;99.90;;;;;;4964717;28;89215;-33
2023/01/02 07:56:23;;;;;;;8.18;3.30;;;11.70;99.90;;;;;;4962833;28;88985;-35
2023/01/02 07:58:49;;;;;;;3.28;2.97;;;11.60;99.90;;;;;;4965624;28;89186;-33
2023/01/02 08:01:15;;;;;;;2.97;2.78;;;11.40;99.90;;;;;;4963885;28;88883;-34
2023/01/02 08:03:41;;;;;;;4.20;2.95;;;11.30;99.90;;;;;;4964916;28;89638;-32
2023/01/02 08:06:09;;;;;;;3.33;2.70;;;11.30;99.90;;;;;;4962749;28;89260;-32
2023/01/02 08:08:35;;;;;;;;;;;11.20;99.90;;;;;;4977916;28;90265;-34
2023/01/02 08:11:09;;;;;;;2.88;2.53;;;11.10;99.90;;;;;;4988132;28;88412;-35
2023/01/02 08:13:35;;;;;;;3.42;3.13;;;11.00;99.90;;;;;;4985972;28;89538;-37
2023/01/02 08:16:10;;;;;;;3.42;3.13;;;10.90;99.90;;;;;;4992033;28;88229;-32
2023/01/02 08:18:36;;;;;;;4.95;4.13;;;10.90;99.90;;;;;;4994303;28;90691;-37
2023/01/02 08:21:02;;;;;;;4.70;4.30;;;10.80;99.90;;;;;;4994493;28;89771;-32
2023/01/02 08:23:27;;;;;;;4.07;3.78;;;10.70;99.90;;;;;;4995173;28;90782;-34
2023/01/02 08:26:00;;;;;;;4.50;4.10;;;10.70;99.90;;;;;;4994101;28;88014;-32
2023/01/02 08:28:26;;;;;;;5.40;4.97;;;10.70;99.90;;;;;;4993291;28;90285;-33
2023/01/02 08:30:52;;;;;;;6.30;5.70;;;10.60;99.90;;;;;;4971641;28;89871;-34
2023/01/02 08:33:18;;;;;;;6.55;5.65;;;10.50;99.90;;;;;;4977694;28;89877;-31
2023/01/02 08:35:43;;;;;;;6.30;5.63;;;10.50;99.90;;;;;;4971886;28;87803;-32
2023/01/02 08:38:09;;;;;;;7.13;5.75;;;10.50;99.90;;;;;;4969442;28;90296;-31
2023/01/02 08:40:35;;;;;;;4.82;4.25;;;10.40;99.90;;;;;;4974001;28;89810;-32
2023/01/02 08:43:00;;;;;;;4.38;3.97;;;10.40;99.90;;;;;;4965767;28;89191;-34
2023/01/02 08:45:26;;;;;;;3.45;2.90;;;10.30;99.90;;;;;;4972784;28;89696;-34
2023/01/02 08:47:51;;;;;;;3.88;3.00;;;10.30;99.90;;;;;;4986371;28;90242;-33
2023/01/02 08:50:17;;;;;;;4.93;2.17;;;10.20;99.90;;;;;;4983401;28;89124;-33
2023/01/02 08:52:43;;;;;;;5.13;2.80;;;10.10;99.90;;;;;;4986168;28;89366;-32
2023/01/02 08:55:09;;;;;;;3.03;2.72;;;9.90;99.90;;;;;;4983995;28;89166;-34
2023/01/02 08:57:34;;;;;;;2.80;2.30;;;9.90;99.90;;;;;;4981652;28;91638;-33
2023/01/02 09:00:00;;;;;;;3.13;2.60;;;9.90;99.90;;;;;;4982677;28;89736;-33
2023/01/02 09:02:26;;;;;;;3.83;2.80;;;9.80;99.90;;;;;;4987607;28;89348;-33
2023/01/02 09:04:51;;;;;;;2.88;2.50;;;9.80;99.90;;;;;;4989131;28;88791;-32
2023/01/02 09:07:17;;;;;;;2.47;1.98;;;9.70;99.90;;;;;;4989514;28;90796;-33
2023/01/02 09:09:42;;;;;;;2.03;1.83;;;9.60;99.90;;;;;;4987051;28;90366;-34
2023/01/02 09:12:08;;;;;;;2.90;1.90;;;9.60;99.90;;;;;;4992902;28;90439;-34
2023/01/02 09:14:34;;;;;;;2.20;2.00;;;9.60;99.90;;;;;;4991700;28;89778;-32
2023/01/02 09:17:00;;;;;;;1.92;1.73;;;9.50;99.90;;;;;;4991931;28;90150;-34
2023/01/02 09:19:26;;;;;;;2.22;1.95;;;9.40;99.90;;;;;;4984788;28;89216;-32
2023/01/02 09:21:51;;;;;;;2.88;2.08;;;9.40;99.90;;;;;;4989552;28;88322;-32
2023/01/02 09:24:17;;;;;;;4.28;1.88;;;9.40;99.90;;;;;;4985180;28;87556;-34
2023/01/02 09:26:43;;;;;;;2.40;1.58;;;9.40;99.90;;;;;;4985402;28;90065;-32
2023/01/02 09:29:11;;;;;;;2.38;2.25;;;9.30;99.90;;;;;;4991470;28;89467;-33
2023/01/02 09:31:37;;;;;;;2.50;2.30;;;9.30;99.90;;;;;;4988629;28;88128;-33
2023/01/02 09:34:02;;;;;;;2.17;1.88;;;9.40;99.90;;;;;;4966310;28;88905;-33
2023/01/02 09:36:28;;;;;;;1.88;1.60;;;9.30;99.90;;;;;;5052823;22;89824;-33
2023/01/02 09:38:57;;;;;;;2.45;1.98;;;9.30;99.90;;;;;;4997753;28;88008;-32
2023/01/02 09:41:41;;;;;;;1.70;1.43;;;9.30;99.90;;;;;;5009824;28;90085;-32
2023/01/02 09:44:11;;;;;;;2.30;1.70;;;9.30;99.90;;;;;;5006493;28;90153;-33
2023/01/02 09:47:04;;;;;;;2.80;1.52;;;9.20;99.90;;;;;;5007746;28;90310;-33
2023/01/02 09:49:36;;;;;;;1.88;1.63;;;9.20;99.90;;;;;;5002401;28;89703;-31
2023/01/02 09:52:01;;;;;;;1.42;1.33;;;9.20;99.90;;;;;;5007106;28;89335;-34
2023/01/02 09:54:32;;;;;;;2.25;1.60;;;9.10;99.90;;;;;;5005420;28;89104;-32
2023/01/02 09:57:23;;;;;;;2.38;1.73;;;9.10;99.90;;;;;;5013082;28;90485;-33
2023/01/02 10:00:15;;;;;;;2.30;1.83;;;9.10;99.90;;;;;;5013698;28;90831;-32
2023/01/02 10:02:59;;;;;;;2.50;2.30;;;9.10;99.90;;;;;;5011153;28;90291;-33
2023/01/02 10:05:33;;;;;;;4.07;2.10;;;9.10;99.90;;;;;;5009081;28;87564;-34
2023/01/02 10:08:40;;;;;;;2.40;1.60;;;9.10;99.90;;;;;;5010182;28;90155;-32
2023/01/02 10:11:14;;;;;;;2.70;2.08;;;9.10;99.90;;;;;;5004392;28;89893;-34
2023/01/02 10:13:48;;;;;;;4.40;2.17;;;9.20;99.90;;;;;;5002592;28;89192;-33
2023/01/02 10:16:21;;;;;;;2.53;2.33;;;9.20;99.90;;;;;;4996132;28;88221;-33
2023/01/02 10:18:51;;;;;;;1.88;1.75;;;9.20;99.90;;;;;;5001814;28;90098;-33
2023/01/02 10:21:27;;;;;;;2.30;2.13;;;9.20;99.90;;;;;;4996319;28;90955;-32
2023/01/02 10:24:06;;;;;;;2.70;2.22;;;9.20;99.90;;;;;;4997158;28;89337;-33
2023/01/02 10:26:35;;;;;;;2.47;2.08;;;9.20;99.90;;;;;;4995906;28;90322;-32
2023/01/02 10:29:04;;;;;;;2.30;2.05;;;9.20;99.90;;;;;;4997462;28;89634;-34
2023/01/02 10:31:41;;;;;;;7.50;2.83;;;9.20;99.90;;;;;;4997539;28;89190;-32
2023/01/02 10:34:16;;;;;;;2.40;1.70;;;9.20;99.90;;;;;;4997477;28;89809;-35
2023/01/02 10:36:43;;;;;;;5.90;1.80;;;9.20;99.90;;;;;;5006317;28;88965;-34
2023/01/02 10:39:18;;;;;;;3.15;2.33;;;9.30;99.90;;;;;;5010823;28;90255;-32
2023/01/02 10:41:48;;;;;;;2.92;2.45;;;9.30;99.90;;;;;;5004683;28;90022;-33
2023/01/02 10:44:36;;;;;;;2.45;2.20;;;9.30;99.90;;;;;;5001917;28;89038;-33
2023/01/02 10:47:12;;;;;;;2.78;2.25;;;9.30;99.90;;;;;;4999961;28;89352;-33
2023/01/02 10:49:40;;;;;;;3.30;2.25;;;9.30;99.90;;;;;;4998205;28;89374;-34
2023/01/02 10:52:16;;;;;;;2.97;2.07;;;9.20;99.90;;;;;;5007238;28;90694;-33
2023/01/02 10:54:53;;;;;;;2.50;2.28;;;9.20;99.90;;;;;;5003536;28;89159;-32
2023/01/02 10:57:43;;;;;;;3.10;2.40;;;9.10;99.90;;;;;;5003275;28;88695;-32
2023/01/02 11:00:30;;;;;;;5.18;2.35;;;9.10;99.90;;;;;;5005781;28;90236;-33
2023/01/02 11:02:59;;;;;;;2.83;1.95;;;9.00;99.90;;;;;;5009034;28;89527;-33
2023/01/02 11:05:27;;;;;;;4.40;2.00;;;9.00;99.90;;;;;;5008288;28;88820;-36
2023/01/02 11:07:53;;;;;;;3.83;3.00;;;9.10;99.90;;;;;;4991595;28;88397;-32
2023/01/02 11:10:28;;;;;;;4.45;2.65;;;9.10;99.90;;;;;;5006349;28;90167;-34
2023/01/02 11:12:54;;;;;;;3.22;2.70;;;9.10;99.90;;;;;;5004044;28;89546;-32
2023/01/02 11:15:34;;;;;;;2.50;2.30;;;9.20;99.90;;;;;;5001778;28;89406;-35
2023/01/02 11:18:02;;;;;;;3.38;2.92;;;9.20;99.90;;;;;;5003176;28;89369;-32
2023/01/02 11:20:34;;;;;;;6.68;3.88;;;9.30;99.90;;;;;;5004919;28;90026;-33
2023/01/02 11:23:02;;;;;;;3.13;2.58;;;9.30;99.90;;;;;;5001126;28;89733;-35
2023/01/02 11:25:35;;;;;;;3.03;2.72;;;9.30;99.90;;;;;;4998721;28;89334;-34
2023/01/02 11:28:01;;;;;;;6.57;2.47;;;9.30;99.90;;;;;;5002963;28;88456;-32
2023/01/02 11:30:43;;;;;;;5.28;2.65;;;9.30;99.90;;;;;;5005653;28;91321;-32
2023/01/02 11:33:23;;;;;;;3.55;2.88;;;9.40;99.90;;;;;;5001830;28;89776;-32
2023/01/02 11:35:54;;;;;;;3.58;3.22;;;9.30;99.90;;;;;;4999092;28;89601;-34
2023/01/02 11:38:26;;;;;;;4.03;2.85;;;9.30;99.90;;;;;;5001361;28;88418;-34
2023/01/02 11:40:58;;;;;;;7.13;2.92;;;9.40;99.90;;;;;;5005037;28;89643;-34
2023/01/02 11:43:48;;;;;;;2.95;2.65;;;9.40;99.90;;;;;;5001637;28;90200;-34
2023/01/02 11:46:32;;;;;;;5.88;2.53;;;9.40;99.90;;;;;;5009664;28;89985;-33
2023/01/02 11:49:05;;;;;;;2.90;2.60;;;9.40;99.90;;;;;;5013062;28;88682;-32
2023/01/02 11:51:35;;;;;;;6.57;2.55;;;9.40;99.90;;;;;;5011820;28;91264;-32
2023/01/02 11:54:05;;;;;;;4.45;2.95;;;9.50;99.90;;;;;;4992227;28;90459;-33
2023/01/02 11:56:37;;;;;;;3.60;2.33;;;9.40;99.90;;;;;;5009855;28;89909;-33
2023/01/02 11:59:27;;;;;;;9.20;3.10;;;9.50;99.90;;;;;;5004830;28;87823;-35
2023/01/02 12:02:00;;;;;;;3.50;2.60;;;9.40;99.90;;;;;;5002734;28;90269;-34
2023/01/02 12:04:26;;;;;;;4.22;2.05;;;9.40;99.90;;;;;;5005125;28;89238;-33
2023/01/02 12:07:19;;;;;;;2.75;2.38;;;9.40;99.90;;;;;;5002546;28;89548;-34
2023/01/02 12:10:16;;;;;;;3.20;2.25;;;9.40;99.90;;;;;;4989182;28;90190;-33
2023/01/02 12:13:12;;;;;;;3.00;1.98;;;9.40;99.90;;;;;;5006995;28;90211;-32
2023/01/02 12:15:41;;;;;;;4.25;2.45;;;9.50;99.90;;;;;;5010220;28;89739;-32
2023/01/02 12:18:25;;;;;;;7.70;2.15;;;9.50;99.90;;;;;;5012147;28;89551;-32
2023/01/02 12:21:08;;;;;;;4.07;2.15;;;9.60;99.90;;;;;;5011218;28;88578;-32
2023/01/02 12:23:49;;;;;;;2.80;2.45;;;9.60;99.90;;;;;;4997833;28;90144;-33
2023/01/02 12:26:26;;;;;;;3.70;2.75;;;9.70;99.90;;;;;;5007277;28;89510;-32
2023/01/02 12:29:11;;;;;;;7.65;3.05;;;9.60;99.90;;;;;;5009920;28;88366;-33
2023/01/02 12:32:01;;;;;;;8.27;3.50;;;9.60;99.90;;;;;;5011476;28;87971;-34
2023/01/02 12:34:36;;;;;;;7.28;4.70;;;9.50;99.90;;;;;;5009551;28;90923;-32
2023/01/02 12:37:44;;;;;;;5.20;3.72;;;9.40;99.90;;;;;;5011096;28;90509;-32
2023/01/02 12:40:37;;;;;;;6.10;4.43;;;9.50;99.90;;;;;;5010284;28;90526;-33
2023/01/02 12:43:32;;;;;;;12.77;4.88;;;9.40;99.90;;;;;;5012134;28;88023;-32
2023/01/02 12:46:07;;;;;;;7.93;5.28;;;9.50;99.90;;;;;;5010367;28;90111;-35
2023/01/02 12:49:04;;;;;;;9.98;4.50;;;9.50;99.90;;;;;;5010168;28;89950;-34
2023/01/02 12:51:46;;;;;;;8.05;4.82;;;9.50;99.90;;;;;;4998976;28;89019;-34
2023/01/02 12:54:18;;;;;;;9.13;4.32;;;9.50;99.90;;;;;;5010608;28;88088;-32
2023/01/02 12:56:53;;;;;;;9.20;4.55;;;9.60;99.90;;;;;;5009038;28;90478;-34
2023/01/02 13:00:14;;;;;;;8.90;3.95;;;9.60;99.90;;;;;;5014438;28;88855;-32
2023/01/02 13:03:05;;;;;;;6.82;4.35;;;9.50;99.90;;;;;;4928617;28;89631;-34
2023/01/02 13:05:37;;;;;;;9.10;4.82;;;9.50;99.90;;;;;;5005207;28;89013;-32
2023/01/02 13:08:18;;;;;;;7.88;4.95;;;9.50;99.90;;;;;;5012248;28;89798;-32